createdAt,value
2019-01-08T00:00:46.597Z,4.10
2019-01-08T00:02:50.382Z,4.10
2019-01-08T00:04:54.121Z,4.10
2019-01-08T00:06:57.885Z,4.10
2019-01-08T00:09:01.580Z,4.10
2019-01-08T00:11:05.286Z,4.20
2019-01-08T00:13:09.051Z,4.10
2019-01-08T00:15:12.735Z,4.10
2019-01-08T00:17:16.400Z,4.20
2019-01-08T00:19:20.049Z,4.10
2019-01-08T00:21:23.637Z,4.10
2019-01-08T00:23:27.417Z,4.10
2019-01-08T00:25:31.061Z,4.10
2019-01-08T00:27:34.811Z,4.10
2019-01-08T00:29:45.352Z,4.10
2019-01-08T00:31:48.949Z,4.10
2019-01-08T00:33:52.605Z,4.10
2019-01-08T00:35:56.222Z,4.10
2019-01-08T00:37:59.880Z,4.10
2019-01-08T00:40:04.078Z,4.10
2019-01-08T00:42:07.743Z,4.10
2019-01-08T00:44:11.484Z,4.10
2019-01-08T00:46:15.148Z,4.10
2019-01-08T00:48:18.845Z,4.10
2019-01-08T00:50:22.517Z,4.10
2019-01-08T00:52:26.155Z,4.10
2019-01-08T00:54:29.797Z,4.10
2019-01-08T00:56:33.527Z,4.10
2019-01-08T00:58:37.264Z,4.10
2019-01-08T01:00:41.046Z,4.10
2019-01-08T01:02:44.712Z,4.10
2019-01-08T01:04:48.486Z,4.20
2019-01-08T01:06:52.263Z,4.10
2019-01-08T01:08:55.931Z,4.20
2019-01-08T01:10:59.624Z,4.20
2019-01-08T01:13:03.294Z,4.10
2019-01-08T01:15:07.051Z,4.10
2019-01-08T01:17:10.866Z,4.20
2019-01-08T01:19:14.642Z,4.10
2019-01-08T01:21:18.279Z,4.20
2019-01-08T01:23:22.019Z,4.20
2019-01-08T01:25:25.818Z,4.20
2019-01-08T01:27:29.604Z,4.20
2019-01-08T01:29:33.183Z,4.20
2019-01-08T01:31:36.867Z,4.20
2019-01-08T01:33:40.551Z,4.20
2019-01-08T01:35:44.388Z,4.20
2019-01-08T01:37:48.065Z,4.20
2019-01-08T01:39:51.699Z,4.20
2019-01-08T01:41:55.419Z,4.20
2019-01-08T01:43:59.224Z,4.30
2019-01-08T01:46:02.976Z,4.20
2019-01-08T01:48:06.624Z,4.20
2019-01-08T01:50:10.362Z,4.20
2019-01-08T01:52:14.143Z,4.30
2019-01-08T01:54:17.781Z,4.30
2019-01-08T01:56:21.530Z,4.30
2019-01-08T01:58:25.245Z,4.30
2019-01-08T02:00:28.963Z,4.30
2019-01-08T02:02:32.597Z,4.30
2019-01-08T02:04:36.348Z,4.30
2019-01-08T02:06:40.039Z,4.40
2019-01-08T02:08:43.689Z,4.40
2019-01-08T02:10:47.460Z,4.50
2019-01-08T02:12:51.173Z,4.50
2019-01-08T02:14:54.820Z,4.50
2019-01-08T02:16:58.498Z,4.60
2019-01-08T02:19:02.078Z,4.60
2019-01-08T02:21:05.784Z,4.60
2019-01-08T02:23:09.460Z,4.60
2019-01-08T02:25:13.168Z,4.70
2019-01-08T02:27:16.904Z,4.60
2019-01-08T02:29:20.550Z,4.60
2019-01-08T02:31:24.180Z,4.70
2019-01-08T02:33:27.934Z,4.70
2019-01-08T02:35:31.657Z,4.70
2019-01-08T02:37:35.460Z,4.60
2019-01-08T02:39:39.109Z,4.70
2019-01-08T02:41:43.350Z,4.70
2019-01-08T02:43:47.759Z,4.70
2019-01-08T02:45:51.418Z,4.70
2019-01-08T02:47:55.050Z,4.70
2019-01-08T02:49:58.705Z,4.70
2019-01-08T02:52:02.382Z,4.70
2019-01-08T02:54:06.042Z,4.70
2019-01-08T02:56:09.697Z,4.80
2019-01-08T02:58:13.367Z,4.70
2019-01-08T03:00:17.075Z,4.70
2019-01-08T03:02:20.846Z,4.70
2019-01-08T03:04:24.497Z,4.80
2019-01-08T03:06:28.259Z,4.80
2019-01-08T03:08:32.044Z,4.80
2019-01-08T03:10:35.770Z,4.80
2019-01-08T03:12:39.505Z,4.70
2019-01-08T03:14:43.393Z,4.80
2019-01-08T03:16:47.037Z,4.80
2019-01-08T03:18:50.753Z,4.80
2019-01-08T03:20:54.418Z,4.70
2019-01-08T03:22:58.011Z,4.80
2019-01-08T03:25:01.661Z,4.80
2019-01-08T03:27:05.323Z,4.80
2019-01-08T03:29:08.976Z,4.80
2019-01-08T03:31:12.632Z,4.80
2019-01-08T03:33:16.248Z,4.90
2019-01-08T03:35:19.907Z,4.90
2019-01-08T03:37:23.485Z,4.90
2019-01-08T03:39:27.171Z,4.90
2019-01-08T03:41:30.804Z,5.00
2019-01-08T03:43:34.506Z,5.00
2019-01-08T03:45:38.157Z,5.00
2019-01-08T03:47:41.823Z,5.00
2019-01-08T03:49:45.510Z,5.00
2019-01-08T03:51:49.195Z,5.00
2019-01-08T03:53:53.897Z,5.10
2019-01-08T03:55:57.511Z,5.10
2019-01-08T03:58:01.237Z,5.10
2019-01-08T04:00:07.861Z,5.10
2019-01-08T04:02:11.687Z,5.10
2019-01-08T04:04:15.372Z,5.10
2019-01-08T04:06:19.069Z,5.20
2019-01-08T04:08:22.853Z,5.20
2019-01-08T04:10:26.550Z,5.20
2019-01-08T04:12:30.126Z,5.20
2019-01-08T04:14:33.887Z,5.30
2019-01-08T04:16:37.483Z,5.30
2019-01-08T04:18:41.157Z,5.30
2019-01-08T04:20:44.771Z,5.30
2019-01-08T04:22:48.332Z,5.30
2019-01-08T04:24:52.201Z,5.30
2019-01-08T04:26:55.848Z,5.40
2019-01-08T04:28:59.521Z,5.40
2019-01-08T04:31:03.275Z,5.40
2019-01-08T04:33:07.007Z,5.40
2019-01-08T04:35:10.581Z,5.40
2019-01-08T04:37:14.152Z,5.50
2019-01-08T04:39:17.832Z,5.50
2019-01-08T04:41:21.504Z,5.50
2019-01-08T04:43:25.214Z,5.40
2019-01-08T04:45:31.271Z,5.40
2019-01-08T04:47:36.172Z,5.50
2019-01-08T04:49:40.775Z,5.50
2019-01-08T04:51:44.451Z,5.50
2019-01-08T04:53:48.106Z,5.50
2019-01-08T04:55:51.822Z,5.50
2019-01-08T04:57:55.466Z,5.60
2019-01-08T05:00:02.102Z,5.60
2019-01-08T05:02:05.787Z,5.60
2019-01-08T05:04:09.345Z,5.70
2019-01-08T05:06:13.005Z,5.60
2019-01-08T05:08:16.760Z,5.60
2019-01-08T05:10:20.421Z,5.60
2019-01-08T05:12:24.153Z,5.60
2019-01-08T05:14:27.783Z,5.70
2019-01-08T05:16:31.674Z,5.70
2019-01-08T05:18:35.721Z,5.70
2019-01-08T05:20:39.279Z,5.70
2019-01-08T05:22:43.235Z,5.70
2019-01-08T05:24:46.927Z,5.80
2019-01-08T05:26:50.512Z,5.80
2019-01-08T05:28:54.238Z,5.80
2019-01-08T05:30:57.875Z,5.70
2019-01-08T05:33:01.562Z,5.80
2019-01-08T05:35:06.176Z,5.80
2019-01-08T05:37:09.905Z,5.80
2019-01-08T05:39:13.574Z,5.80
2019-01-08T05:41:17.313Z,5.80
2019-01-08T05:43:21.031Z,5.80
2019-01-08T05:45:24.679Z,5.80
2019-01-08T05:47:28.307Z,5.80
2019-01-08T05:49:31.904Z,5.90
2019-01-08T05:51:35.522Z,5.80
2019-01-08T05:53:39.204Z,5.80
2019-01-08T05:55:42.776Z,5.80
2019-01-08T05:57:46.452Z,5.80
2019-01-08T05:59:50.106Z,5.80
2019-01-08T06:01:53.762Z,5.80
2019-01-08T06:03:57.416Z,5.80
2019-01-08T06:06:01.132Z,5.80
2019-01-08T06:08:04.819Z,5.80
2019-01-08T06:10:10.012Z,5.80
2019-01-08T06:12:13.806Z,5.80
2019-01-08T06:14:17.401Z,5.80
2019-01-08T06:16:20.990Z,5.80
2019-01-08T06:18:24.826Z,5.70
2019-01-08T06:20:28.673Z,5.70
2019-01-08T06:22:32.552Z,5.70
2019-01-08T06:24:36.318Z,5.70
2019-01-08T06:26:40.041Z,5.70
2019-01-08T06:28:43.930Z,5.70
2019-01-08T06:30:47.631Z,5.70
2019-01-08T06:32:51.349Z,5.70
2019-01-08T06:34:55.122Z,5.60
2019-01-08T06:36:58.949Z,5.60
2019-01-08T06:39:02.661Z,5.60
2019-01-08T06:41:06.565Z,5.60
2019-01-08T06:43:10.438Z,5.70
2019-01-08T06:45:14.175Z,5.70
2019-01-08T06:47:17.928Z,5.70
2019-01-08T06:49:21.834Z,5.60
2019-01-08T06:51:25.682Z,5.50
2019-01-08T06:53:29.482Z,5.50
2019-01-08T06:55:33.355Z,5.40
2019-01-08T06:57:37.238Z,5.40
2019-01-08T06:59:41.080Z,5.30
2019-01-08T07:01:46.145Z,5.30
2019-01-08T07:03:50.066Z,5.30
2019-01-08T07:05:53.797Z,5.20
2019-01-08T07:07:57.681Z,5.20
2019-01-08T07:10:01.721Z,5.10
2019-01-08T07:12:05.481Z,5.10
2019-01-08T07:14:09.480Z,5.10
2019-01-08T07:16:13.288Z,5.10
2019-01-08T07:18:17.606Z,5.00
2019-01-08T07:20:22.116Z,5.00
2019-01-08T07:22:26.185Z,4.90
2019-01-08T07:24:30.128Z,4.90
2019-01-08T07:26:34.515Z,4.90
2019-01-08T07:28:38.392Z,4.90
2019-01-08T07:30:42.343Z,4.90
2019-01-08T07:32:46.138Z,4.90
2019-01-08T07:34:50.325Z,4.80
2019-01-08T07:36:54.396Z,4.80
2019-01-08T07:38:58.286Z,4.80
2019-01-08T07:41:02.216Z,4.70
2019-01-08T07:43:06.097Z,4.70
2019-01-08T07:45:10.703Z,4.60
2019-01-08T07:47:14.835Z,4.60
2019-01-08T07:49:18.983Z,4.70
2019-01-08T07:51:23.019Z,4.70
2019-01-08T07:53:26.924Z,4.70
2019-01-08T07:55:31.107Z,4.70
2019-01-08T07:57:35.149Z,4.60
2019-01-08T07:59:39.085Z,4.70
2019-01-08T08:01:43.166Z,4.60
2019-01-08T08:03:46.985Z,4.70
2019-01-08T08:05:50.957Z,4.70
2019-01-08T08:07:54.827Z,4.70
2019-01-08T08:09:58.737Z,4.70
2019-01-08T08:12:02.713Z,4.60
2019-01-08T08:14:06.577Z,4.60
2019-01-08T08:16:10.464Z,4.70
2019-01-08T08:18:16.418Z,4.70
2019-01-08T08:20:20.318Z,4.70
2019-01-08T08:22:24.134Z,4.70
2019-01-08T08:24:28.388Z,4.80
2019-01-08T08:26:32.348Z,4.70
2019-01-08T08:28:36.197Z,4.70
2019-01-08T08:30:40.081Z,4.80
2019-01-08T08:32:43.928Z,4.80
2019-01-08T08:34:47.777Z,4.70
2019-01-08T08:36:51.643Z,4.70
2019-01-08T08:38:55.640Z,4.70
2019-01-08T08:40:59.681Z,4.70
2019-01-08T08:43:03.607Z,4.70
2019-01-08T08:45:08.662Z,4.70
2019-01-08T08:47:12.819Z,4.80
2019-01-08T08:49:16.625Z,4.80
2019-01-08T08:51:20.509Z,4.70
2019-01-08T08:53:24.259Z,4.80
2019-01-08T08:55:28.141Z,4.80
2019-01-08T08:57:32.074Z,4.80
2019-01-08T08:59:35.976Z,4.80
2019-01-08T09:01:39.930Z,4.80
2019-01-08T09:03:43.843Z,4.90
2019-01-08T09:05:47.707Z,4.90
2019-01-08T09:07:51.568Z,5.00
2019-01-08T09:09:55.433Z,5.00
2019-01-08T09:11:59.291Z,5.10
2019-01-08T09:14:03.165Z,5.10
2019-01-08T09:16:07.109Z,5.20
2019-01-08T09:18:10.919Z,5.20
2019-01-08T09:20:14.817Z,5.30
2019-01-08T09:22:18.786Z,5.40
2019-01-08T09:24:22.641Z,5.40
2019-01-08T09:26:26.512Z,5.40
2019-01-08T09:28:30.436Z,5.50
2019-01-08T09:30:34.350Z,5.50
2019-01-08T09:32:38.286Z,5.60
2019-01-08T09:34:42.152Z,5.60
2019-01-08T09:36:46.037Z,5.70
2019-01-08T09:38:49.888Z,5.80
2019-01-08T09:40:53.725Z,5.90
2019-01-08T09:42:57.715Z,6.00
2019-01-08T09:45:01.467Z,6.00
2019-01-08T09:47:05.446Z,6.00
2019-01-08T09:49:09.420Z,6.00
2019-01-08T09:51:13.292Z,6.00
2019-01-08T09:53:17.242Z,6.10
2019-01-08T09:55:21.166Z,6.20
2019-01-08T09:57:25.131Z,6.30
2019-01-08T09:59:29.151Z,6.40
2019-01-08T10:01:33.039Z,6.40
2019-01-08T10:03:37.014Z,6.50
2019-01-08T10:05:40.931Z,6.60
2019-01-08T10:07:44.939Z,6.70
2019-01-08T10:09:48.933Z,6.90
2019-01-08T10:11:52.849Z,6.90
2019-01-08T10:13:56.803Z,6.80
2019-01-08T10:16:00.716Z,6.70
2019-01-08T10:18:04.663Z,6.60
2019-01-08T10:20:09.807Z,6.50
2019-01-08T10:22:13.713Z,6.70
2019-01-08T10:24:17.732Z,6.80
2019-01-08T10:26:21.626Z,6.80
2019-01-08T10:28:25.741Z,6.70
2019-01-08T10:30:29.618Z,6.60
2019-01-08T10:32:33.536Z,6.50
2019-01-08T10:34:37.464Z,6.40
2019-01-08T10:36:41.397Z,6.40
2019-01-08T10:38:46.717Z,6.30
2019-01-08T10:40:50.545Z,6.30
2019-01-08T10:42:54.508Z,6.20
2019-01-08T10:44:58.411Z,6.10
2019-01-08T10:47:02.189Z,6.10
2019-01-08T10:49:06.150Z,6.10
2019-01-08T10:51:10.013Z,6.00
2019-01-08T10:53:13.892Z,6.00
2019-01-08T10:55:17.744Z,5.90
2019-01-08T10:57:21.595Z,5.90
2019-01-08T10:59:25.545Z,5.90
2019-01-08T11:01:30.053Z,5.80
2019-01-08T11:03:35.292Z,5.90
2019-01-08T11:05:39.151Z,5.90
2019-01-08T11:07:42.941Z,5.80
2019-01-08T11:09:46.906Z,5.80
2019-01-08T11:11:50.771Z,5.80
2019-01-08T11:13:54.665Z,5.80
2019-01-08T11:15:58.463Z,5.70
2019-01-08T11:18:02.308Z,5.70
2019-01-08T11:20:08.890Z,5.70
2019-01-08T11:22:12.831Z,5.70
2019-01-08T11:24:16.777Z,5.60
2019-01-08T11:26:20.655Z,5.60
2019-01-08T11:28:24.536Z,5.50
2019-01-08T11:30:28.455Z,5.50
2019-01-08T11:32:33.346Z,5.50
2019-01-08T11:34:37.352Z,5.40
2019-01-08T11:36:41.213Z,5.40
2019-01-08T11:38:45.037Z,5.40
2019-01-08T11:40:48.903Z,5.30
2019-01-08T11:42:52.824Z,5.30
2019-01-08T11:44:56.739Z,5.40
2019-01-08T11:47:00.645Z,5.40
2019-01-08T11:49:04.480Z,5.40
2019-01-08T11:51:08.411Z,5.50
2019-01-08T11:53:12.841Z,5.50
2019-01-08T11:55:16.860Z,5.50
2019-01-08T11:57:20.735Z,5.50
2019-01-08T11:59:24.601Z,5.50
2019-01-08T12:01:28.483Z,5.50
2019-01-08T12:03:32.472Z,5.50
2019-01-08T12:05:36.357Z,5.50
2019-01-08T12:07:40.219Z,5.50
2019-01-08T12:09:44.098Z,5.60
2019-01-08T12:11:47.951Z,5.60
2019-01-08T12:13:51.853Z,5.60
2019-01-08T12:15:55.806Z,5.60
2019-01-08T12:17:59.745Z,5.60
2019-01-08T12:20:04.965Z,5.60
2019-01-08T12:22:08.885Z,5.60
2019-01-08T12:24:12.769Z,5.60
2019-01-08T12:26:16.725Z,5.50
2019-01-08T12:28:20.641Z,5.60
2019-01-08T12:30:24.504Z,5.60
2019-01-08T12:32:28.493Z,5.60
2019-01-08T12:34:32.365Z,5.60
2019-01-08T12:36:36.352Z,5.50
2019-01-08T12:38:40.331Z,5.50
2019-01-08T12:40:44.175Z,5.50
2019-01-08T12:42:48.159Z,5.40
2019-01-08T12:44:51.981Z,5.40
2019-01-08T12:46:55.886Z,5.40
2019-01-08T12:48:59.736Z,5.40
2019-01-08T12:51:03.665Z,5.40
2019-01-08T12:53:07.508Z,5.40
2019-01-08T12:55:13.074Z,5.40
2019-01-08T12:57:17.097Z,5.40
2019-01-08T12:59:20.995Z,5.40
2019-01-08T13:01:24.820Z,5.40
2019-01-08T13:03:28.714Z,5.40
2019-01-08T13:05:32.885Z,5.40
2019-01-08T13:07:37.144Z,5.40
2019-01-08T13:09:41.000Z,5.40
2019-01-08T13:11:45.040Z,5.40
2019-01-08T13:13:50.676Z,5.40
2019-01-08T13:15:54.693Z,5.40
2019-01-08T13:18:00.189Z,5.30
2019-01-08T13:20:04.780Z,5.30
2019-01-08T13:22:08.764Z,5.30
2019-01-08T13:24:13.119Z,5.30
2019-01-08T13:26:16.991Z,5.30
2019-01-08T13:28:23.446Z,5.30
2019-01-08T13:30:26.258Z,5.30
2019-01-08T13:32:31.918Z,5.30
2019-01-08T13:34:36.098Z,5.30
2019-01-08T13:36:40.594Z,5.30
2019-01-08T13:38:44.333Z,5.30
2019-01-08T13:40:47.945Z,5.30
2019-01-08T13:42:51.900Z,5.30
2019-01-08T13:44:55.696Z,5.30
2019-01-08T13:46:59.293Z,5.30
2019-01-08T13:49:03.407Z,5.30
2019-01-08T13:51:07.239Z,5.30
2019-01-08T13:53:10.961Z,5.30
2019-01-08T13:55:16.710Z,5.30
2019-01-08T13:57:23.898Z,5.30
2019-01-08T13:59:27.942Z,5.30
2019-01-08T14:01:31.597Z,5.30
2019-01-08T14:03:35.368Z,5.30
2019-01-08T14:05:39.176Z,5.30
2019-01-08T14:07:44.392Z,5.30
2019-01-08T14:09:49.937Z,5.30
2019-01-08T14:11:53.918Z,5.30
2019-01-08T14:13:57.989Z,5.30
2019-01-08T14:16:02.727Z,5.30
2019-01-08T14:18:08.962Z,5.30
2019-01-08T14:20:13.737Z,5.30
2019-01-08T14:22:17.974Z,5.40
2019-01-08T14:24:22.459Z,5.40
2019-01-08T14:26:27.429Z,5.40
2019-01-08T14:28:32.687Z,5.40
2019-01-08T14:30:36.552Z,5.40
2019-01-08T14:32:41.083Z,5.40
2019-01-08T14:34:45.559Z,5.40
2019-01-08T14:36:49.622Z,5.40
2019-01-08T14:38:53.944Z,5.40
2019-01-08T14:40:57.893Z,5.30
2019-01-08T14:43:02.999Z,5.40
2019-01-08T14:45:07.526Z,5.40
2019-01-08T14:47:12.829Z,5.40
2019-01-08T14:49:16.757Z,5.40
2019-01-08T14:51:21.107Z,5.40
2019-01-08T14:53:26.201Z,5.40
2019-01-08T14:55:31.692Z,5.40
2019-01-08T14:57:35.469Z,5.40
2019-01-08T14:59:40.849Z,5.30
2019-01-08T15:01:46.845Z,5.30
2019-01-08T15:03:54.455Z,5.30
2019-01-08T15:05:58.702Z,5.40
2019-01-08T15:08:03.926Z,5.30
2019-01-08T15:10:08.635Z,5.30
2019-01-08T15:12:13.519Z,5.30
2019-01-08T15:14:18.618Z,5.30
2019-01-08T15:16:22.222Z,5.20
2019-01-08T15:18:26.357Z,5.20
2019-01-08T15:20:30.835Z,5.10
2019-01-08T15:22:36.136Z,5.20
2019-01-08T15:24:41.260Z,5.10
2019-01-08T15:26:45.790Z,5.20
2019-01-08T15:28:50.218Z,5.20
2019-01-08T15:30:55.017Z,5.20
2019-01-08T15:32:59.306Z,5.20
2019-01-08T15:35:03.149Z,5.20
2019-01-08T15:37:08.265Z,5.10
2019-01-08T15:39:12.316Z,5.10
2019-01-08T15:41:16.289Z,5.10
2019-01-08T15:43:19.930Z,5.10
2019-01-08T15:45:25.067Z,5.10
2019-01-08T15:47:28.921Z,5.00
2019-01-08T15:49:32.635Z,5.00
2019-01-08T15:51:36.411Z,5.00
2019-01-08T15:53:40.058Z,5.00
2019-01-08T15:55:43.846Z,5.00
2019-01-08T15:57:47.951Z,5.00
2019-01-08T15:59:51.871Z,5.00
2019-01-08T16:01:57.459Z,5.00
2019-01-08T16:04:01.200Z,5.00
2019-01-08T16:06:04.878Z,5.00
2019-01-08T16:08:08.666Z,5.00
2019-01-08T16:10:12.363Z,5.00
2019-01-08T16:12:16.305Z,5.00
2019-01-08T16:14:19.863Z,5.00
2019-01-08T16:16:23.608Z,5.00
2019-01-08T16:18:27.334Z,5.00
2019-01-08T16:20:31.156Z,4.90
2019-01-08T16:22:34.826Z,4.90
2019-01-08T16:24:38.527Z,4.90
2019-01-08T16:26:42.226Z,4.80
2019-01-08T16:28:45.881Z,4.80
2019-01-08T16:30:49.620Z,4.80
2019-01-08T16:32:55.712Z,4.80
2019-01-08T16:34:59.396Z,4.80
2019-01-08T16:37:03.227Z,4.80
2019-01-08T16:39:08.410Z,4.70
2019-01-08T16:41:12.630Z,4.70
2019-01-08T16:43:16.515Z,4.70
2019-01-08T16:45:20.186Z,4.70
2019-01-08T16:47:24.035Z,4.70
2019-01-08T16:49:27.976Z,4.70
2019-01-08T16:51:31.834Z,4.70
2019-01-08T16:53:41.331Z,4.70
2019-01-08T16:55:40.981Z,4.70
2019-01-08T16:57:44.749Z,4.60
2019-01-08T16:59:48.470Z,4.60
2019-01-08T17:01:52.195Z,4.60
2019-01-08T17:03:55.989Z,4.70
2019-01-08T17:05:59.730Z,4.70
2019-01-08T17:08:03.504Z,4.60
2019-01-08T17:10:08.337Z,4.70
2019-01-08T17:12:12.170Z,4.60
2019-01-08T17:14:15.978Z,4.60
2019-01-08T17:16:19.729Z,4.60
2019-01-08T17:18:23.533Z,4.60
2019-01-08T17:20:27.356Z,4.70
2019-01-08T17:22:31.019Z,4.60
2019-01-08T17:24:36.216Z,4.60
2019-01-08T17:26:39.988Z,4.60
2019-01-08T17:28:43.696Z,4.60
2019-01-08T17:30:47.535Z,4.60
2019-01-08T17:32:51.295Z,4.60
2019-01-08T17:34:55.063Z,4.60
2019-01-08T17:36:58.658Z,4.60
2019-01-08T17:39:02.493Z,4.60
2019-01-08T17:41:06.301Z,4.50
2019-01-08T17:43:09.990Z,4.60
2019-01-08T17:45:15.205Z,4.60
2019-01-08T17:47:18.928Z,4.60
2019-01-08T17:49:22.610Z,4.60
2019-01-08T17:51:26.341Z,4.60
2019-01-08T17:53:30.005Z,4.60
2019-01-08T17:55:33.841Z,4.60
2019-01-08T17:57:37.537Z,4.60
2019-01-08T17:59:41.246Z,4.60
2019-01-08T18:01:48.529Z,4.60
2019-01-08T18:03:52.358Z,4.60
2019-01-08T18:05:58.222Z,4.60
2019-01-08T18:08:01.859Z,4.60
2019-01-08T18:10:07.625Z,4.60
2019-01-08T18:12:11.517Z,4.60
2019-01-08T18:14:16.254Z,4.50
2019-01-08T18:16:21.539Z,4.50
2019-01-08T18:18:25.270Z,4.60
2019-01-08T18:20:29.025Z,4.50
2019-01-08T18:22:32.670Z,4.50
2019-01-08T18:24:36.359Z,4.40
2019-01-08T18:26:40.013Z,4.40
2019-01-08T18:28:43.736Z,4.40
2019-01-08T18:30:47.393Z,4.40
2019-01-08T18:32:51.124Z,4.30
2019-01-08T18:34:54.863Z,4.30
2019-01-08T18:36:58.527Z,4.30
2019-01-08T18:39:02.314Z,4.20
2019-01-08T18:41:06.439Z,4.20
2019-01-08T18:43:14.066Z,4.20
2019-01-08T18:45:15.925Z,4.10
2019-01-08T18:47:20.287Z,4.10
2019-01-08T18:49:24.821Z,4.10
2019-01-08T18:51:28.521Z,4.10
2019-01-08T18:53:32.337Z,4.10
2019-01-08T18:55:36.255Z,4.10
2019-01-08T18:57:39.836Z,4.00
2019-01-08T18:59:43.586Z,4.00
2019-01-08T19:01:47.239Z,4.00
2019-01-08T19:03:59.599Z,4.00
2019-01-08T19:05:56.623Z,4.00
2019-01-08T19:08:00.370Z,4.00
2019-01-08T19:10:07.067Z,4.00
2019-01-08T19:12:10.790Z,4.00
2019-01-08T19:14:14.866Z,4.00
2019-01-08T19:16:18.558Z,4.00
2019-01-08T19:18:22.395Z,4.00
2019-01-08T19:20:26.226Z,4.10
2019-01-08T19:22:30.340Z,4.10
2019-01-08T19:24:34.058Z,4.20
2019-01-08T19:26:37.857Z,4.20
2019-01-08T19:28:41.612Z,4.20
2019-01-08T19:30:45.294Z,4.20
2019-01-08T19:32:50.427Z,4.20
2019-01-08T19:34:54.108Z,4.10
2019-01-08T19:36:58.017Z,4.20
2019-01-08T19:39:01.595Z,4.20
2019-01-08T19:41:05.430Z,4.20
2019-01-08T19:43:09.149Z,4.20
2019-01-08T19:45:13.466Z,4.20
2019-01-08T19:47:17.141Z,4.20
2019-01-08T19:49:21.115Z,4.20
2019-01-08T19:51:24.852Z,4.20
2019-01-08T19:53:28.594Z,4.20
2019-01-08T19:55:32.367Z,4.20
2019-01-08T19:57:36.082Z,4.20
2019-01-08T19:59:40.442Z,4.20
2019-01-08T20:01:44.162Z,4.10
2019-01-08T20:03:47.786Z,4.10
2019-01-08T20:05:51.518Z,4.10
2019-01-08T20:07:55.523Z,4.10
2019-01-08T20:09:59.527Z,4.10
2019-01-08T20:12:03.514Z,4.10
2019-01-08T20:14:07.239Z,4.10
2019-01-08T20:16:14.604Z,4.10
2019-01-08T20:18:18.825Z,4.10
2019-01-08T20:20:22.553Z,4.10
2019-01-08T20:22:26.333Z,4.20
2019-01-08T20:24:29.978Z,4.20
2019-01-08T20:26:33.732Z,4.20
2019-01-08T20:28:37.493Z,4.20
2019-01-08T20:30:41.218Z,4.20
2019-01-08T20:32:48.669Z,4.20
2019-01-08T20:34:52.446Z,4.30
2019-01-08T20:36:57.936Z,4.30
2019-01-08T20:39:01.624Z,4.30
2019-01-08T20:41:05.428Z,4.30
2019-01-08T20:43:09.207Z,4.30
2019-01-08T20:45:12.970Z,4.20
2019-01-08T20:47:16.673Z,4.20
2019-01-08T20:49:20.370Z,4.20
2019-01-08T20:51:24.036Z,4.20
2019-01-08T20:53:27.806Z,4.20
2019-01-08T20:55:31.445Z,4.20
2019-01-08T20:57:35.088Z,4.20
2019-01-08T20:59:38.881Z,4.10
2019-01-08T21:01:42.571Z,4.10
2019-01-08T21:03:46.164Z,4.10
2019-01-08T21:05:49.911Z,4.10
2019-01-08T21:07:53.719Z,4.10
2019-01-08T21:09:57.556Z,4.10
2019-01-08T21:12:01.277Z,4.00
2019-01-08T21:14:05.046Z,4.10
2019-01-08T21:16:08.841Z,4.10
2019-01-08T21:18:12.629Z,4.00
2019-01-08T21:20:16.361Z,4.00
2019-01-08T21:22:20.115Z,4.00
2019-01-08T21:24:28.481Z,4.00
2019-01-08T21:26:29.174Z,4.00
2019-01-08T21:28:32.908Z,4.00
2019-01-08T21:30:36.707Z,4.00
2019-01-08T21:32:40.328Z,4.00
2019-01-08T21:34:44.753Z,4.00
2019-01-08T21:36:48.490Z,4.00
2019-01-08T21:38:52.193Z,4.00
2019-01-08T21:40:55.959Z,4.00
2019-01-08T21:42:59.578Z,4.00
2019-01-08T21:45:03.377Z,4.00
2019-01-08T21:47:07.020Z,4.00
2019-01-08T21:49:10.731Z,4.00
2019-01-08T21:51:14.671Z,4.00
2019-01-08T21:53:18.363Z,3.90
2019-01-08T21:55:23.513Z,4.00
2019-01-08T21:57:27.321Z,4.00
2019-01-08T21:59:31.094Z,4.10
2019-01-08T22:01:35.401Z,4.00
2019-01-08T22:03:39.245Z,4.00
2019-01-08T22:05:42.991Z,4.00
2019-01-08T22:07:46.725Z,3.90
2019-01-08T22:09:50.448Z,3.90
2019-01-08T22:11:54.121Z,3.80
2019-01-08T22:13:57.845Z,3.80
2019-01-08T22:16:01.499Z,3.90
2019-01-08T22:18:05.305Z,3.80
2019-01-08T22:20:10.359Z,3.80
2019-01-08T22:22:14.034Z,3.70
2019-01-08T22:24:17.698Z,3.70
2019-01-08T22:26:23.579Z,3.70
2019-01-08T22:28:27.825Z,3.60
2019-01-08T22:30:31.540Z,3.70
2019-01-08T22:32:35.204Z,3.70
2019-01-08T22:34:38.917Z,3.70
2019-01-08T22:36:42.609Z,3.70
2019-01-08T22:38:46.331Z,3.70
2019-01-08T22:40:50.039Z,3.70
2019-01-08T22:42:53.779Z,3.60
2019-01-08T22:44:58.627Z,3.60
2019-01-08T22:47:02.578Z,3.70
2019-01-08T22:49:06.287Z,3.60
2019-01-08T22:51:10.036Z,3.70
2019-01-08T22:53:15.371Z,3.70
2019-01-08T22:55:19.112Z,3.70
2019-01-08T22:57:22.861Z,3.70
2019-01-08T22:59:26.533Z,3.70
2019-01-08T23:01:31.997Z,3.70
2019-01-08T23:03:36.353Z,3.60
2019-01-08T23:05:40.272Z,3.60
2019-01-08T23:07:44.063Z,3.60
2019-01-08T23:09:47.638Z,3.60
2019-01-08T23:11:51.325Z,3.60
2019-01-08T23:13:55.056Z,3.60
2019-01-08T23:15:58.773Z,3.60
2019-01-08T23:18:02.540Z,3.60
2019-01-08T23:20:08.212Z,3.60
2019-01-08T23:22:12.091Z,3.50
2019-01-08T23:24:15.809Z,3.60
2019-01-08T23:26:19.447Z,3.60
2019-01-08T23:28:23.204Z,3.50
2019-01-08T23:30:26.865Z,3.50
2019-01-08T23:32:30.527Z,3.50
2019-01-08T23:34:34.319Z,3.60
2019-01-08T23:36:38.068Z,3.50
2019-01-08T23:38:41.826Z,3.60
2019-01-08T23:40:45.552Z,3.60
2019-01-08T23:42:49.348Z,3.50
2019-01-08T23:44:53.048Z,3.60
2019-01-08T23:46:56.808Z,3.60
2019-01-08T23:49:00.452Z,3.60
2019-01-08T23:51:04.233Z,3.50
2019-01-08T23:53:09.541Z,3.50
2019-01-08T23:55:13.206Z,3.60
2019-01-08T23:57:16.952Z,3.60
2019-01-08T23:59:20.791Z,3.60
